createdAt,value
2023-01-13T00:03:57.367Z,86.10
2023-01-13T00:09:04.722Z,86.20
2023-01-13T00:14:12.127Z,86.44
2023-01-13T00:19:19.677Z,86.59
2023-01-13T00:24:27.451Z,87.07
2023-01-13T00:29:34.806Z,87.24
2023-01-13T00:34:42.175Z,86.95
2023-01-13T00:39:49.673Z,87.20
2023-01-13T00:44:56.997Z,87.54
2023-01-13T00:50:02.462Z,87.57
2023-01-13T00:55:11.280Z,88.03
2023-01-13T01:00:20.166Z,87.62
2023-01-13T01:05:27.520Z,87.68
2023-01-13T01:10:35.156Z,88.27
2023-01-13T01:15:45.426Z,88.73
2023-01-13T01:20:52.826Z,89.00
2023-01-13T01:26:06.128Z,89.33
2023-01-13T01:31:17.755Z,89.50
2023-01-13T01:36:28.955Z,89.42
2023-01-13T01:41:37.584Z,89.72
2023-01-13T01:46:46.152Z,89.61
2023-01-13T01:51:57.934Z,89.60
2023-01-13T01:57:06.371Z,90.12
2023-01-13T02:05:00.311Z,90.02
2023-01-13T02:10:10.634Z,90.43
2023-01-13T02:15:20.051Z,90.73
2023-01-13T02:20:53.764Z,91.38
2023-01-13T02:26:22.780Z,91.41
2023-01-13T02:31:46.555Z,90.93
2023-01-13T02:36:59.694Z,91.04
2023-01-13T02:42:29.329Z,91.04
2023-01-13T02:47:41.086Z,90.90
2023-01-13T02:52:52.316Z,90.33
2023-01-13T02:58:03.261Z,90.61
2023-01-13T03:03:10.729Z,91.38
2023-01-13T03:08:47.014Z,91.84
2023-01-13T03:14:12.149Z,91.77
2023-01-13T03:19:30.704Z,91.50
2023-01-13T03:24:41.692Z,91.51
2023-01-13T03:29:52.371Z,91.99
2023-01-13T03:35:06.631Z,93.07
2023-01-13T03:40:20.010Z,93.36
2023-01-13T03:45:27.967Z,92.72
2023-01-13T03:50:41.145Z,92.85
2023-01-13T04:01:53.132Z,93.33
2023-01-13T04:07:07.666Z,93.16
2023-01-13T04:12:14.358Z,93.05
2023-01-13T04:17:19.135Z,93.12
2023-01-13T04:22:23.643Z,93.27
2023-01-13T04:27:27.720Z,93.22
2023-01-13T04:35:53.962Z,93.80
2023-01-13T04:41:02.391Z,94.18
2023-01-13T04:46:09.935Z,94.15
2023-01-13T04:51:17.260Z,94.27
2023-01-13T04:56:22.696Z,94.32
2023-01-13T05:01:30.169Z,94.00
2023-01-13T05:06:37.738Z,94.48
2023-01-13T05:12:02.994Z,94.57
2023-01-13T05:17:14.195Z,94.46
2023-01-13T05:22:39.033Z,94.68
2023-01-13T05:27:46.320Z,94.97
2023-01-13T05:32:53.731Z,94.95
2023-01-13T05:38:01.033Z,94.77
2023-01-13T05:43:21.985Z,94.49
2023-01-13T05:48:31.009Z,94.81
2023-01-13T05:53:41.023Z,94.20
2023-01-13T05:58:48.581Z,94.44
2023-01-13T06:03:56.403Z,94.41
2023-01-13T06:09:03.949Z,94.68
2023-01-13T06:14:11.651Z,95.03
2023-01-13T06:19:19.346Z,95.20
2023-01-13T06:24:26.828Z,95.52
2023-01-13T06:29:34.550Z,95.82
2023-01-13T06:34:43.145Z,95.98
2023-01-13T06:39:51.017Z,96.18
2023-01-13T06:44:58.415Z,96.50
2023-01-13T06:50:06.451Z,96.30
2023-01-13T06:55:14.794Z,95.82
2023-01-13T07:00:24.658Z,95.34
2023-01-13T07:05:32.761Z,94.84
2023-01-13T07:10:41.078Z,94.08
2023-01-13T07:15:57.980Z,93.38
2023-01-13T07:21:07.377Z,92.47
2023-01-13T07:26:15.796Z,91.63
2023-01-13T07:31:24.020Z,91.03
2023-01-13T07:36:31.218Z,90.44
2023-01-13T07:41:54.362Z,89.83
2023-01-13T07:47:01.922Z,89.38
2023-01-13T07:52:09.851Z,88.56
2023-01-13T07:57:17.344Z,88.24
2023-01-13T08:02:24.593Z,87.33
2023-01-13T08:07:32.295Z,86.92
2023-01-13T08:12:57.352Z,86.16
2023-01-13T08:18:05.226Z,85.30
2023-01-13T08:23:12.454Z,85.03
2023-01-13T08:28:20.467Z,84.73
2023-01-13T08:33:29.129Z,83.67
2023-01-13T08:38:37.271Z,82.93
2023-01-13T08:43:44.998Z,82.35
2023-01-13T08:48:52.588Z,81.89
2023-01-13T08:53:59.973Z,81.16
2023-01-13T08:59:10.138Z,80.13
2023-01-13T09:04:20.795Z,79.10
2023-01-13T09:09:28.470Z,78.28
2023-01-13T09:14:39.067Z,78.20
2023-01-13T09:19:46.398Z,77.64
2023-01-13T09:24:54.392Z,76.99
2023-01-13T09:30:02.041Z,76.06
2023-01-13T09:35:11.126Z,75.51
2023-01-13T09:40:23.265Z,74.88
2023-01-13T09:45:35.415Z,73.89
2023-01-13T09:51:03.511Z,72.92
2023-01-13T09:56:15.048Z,73.06
2023-01-13T10:01:28.162Z,73.07
2023-01-13T10:06:40.252Z,73.01
2023-01-13T10:12:07.417Z,72.91
2023-01-13T10:17:27.404Z,72.77
2023-01-13T10:22:50.575Z,72.37
2023-01-13T10:38:00.519Z,70.95
2023-01-13T10:43:12.541Z,70.46
2023-01-13T10:48:20.155Z,70.76
2023-01-13T10:53:29.199Z,69.88
2023-01-13T10:58:36.512Z,69.28
2023-01-13T11:03:47.296Z,69.18
2023-01-13T11:08:58.977Z,69.86
2023-01-13T11:14:27.086Z,69.02
2023-01-13T11:19:37.994Z,69.19
2023-01-13T11:24:51.404Z,68.45
2023-01-13T11:30:10.526Z,69.18
2023-01-13T11:35:22.943Z,68.21
2023-01-13T11:40:35.772Z,68.16
2023-01-13T11:45:46.510Z,67.46
2023-01-13T11:51:01.225Z,67.59
2023-01-13T11:56:27.582Z,67.70
2023-01-13T12:02:11.711Z,67.68
2023-01-13T12:07:23.319Z,67.26
2023-01-13T12:12:47.754Z,67.00
2023-01-13T12:18:21.498Z,67.24
2023-01-13T12:23:35.952Z,66.59
2023-01-13T12:28:50.275Z,66.78
2023-01-13T12:34:21.906Z,66.44
2023-01-13T12:39:39.322Z,66.59
2023-01-13T12:45:20.874Z,66.74
2023-01-13T12:50:43.699Z,66.19
2023-01-13T12:55:54.535Z,65.63
2023-01-13T13:01:12.394Z,66.26
2023-01-13T13:06:24.528Z,66.26
2023-01-13T13:12:04.851Z,67.17
2023-01-13T13:17:44.929Z,67.45
2023-01-13T13:22:54.703Z,67.12
2023-01-13T13:28:21.319Z,67.11
2023-01-13T13:33:46.663Z,66.93
2023-01-13T13:39:23.690Z,66.13
2023-01-13T13:44:51.970Z,66.26
2023-01-13T13:50:10.413Z,66.72
2023-01-13T13:55:22.075Z,66.85
2023-01-13T14:00:32.246Z,66.69
2023-01-13T14:05:40.273Z,67.14
2023-01-13T14:10:49.172Z,66.75
2023-01-13T14:16:02.538Z,67.42
2023-01-13T14:21:21.896Z,67.20
2023-01-13T14:26:31.847Z,67.33
2023-01-13T14:31:41.707Z,67.64
2023-01-13T14:36:51.424Z,67.92
2023-01-13T14:41:58.669Z,67.67
2023-01-13T14:47:19.802Z,67.29
2023-01-13T14:52:29.318Z,67.41
2023-01-13T14:57:39.651Z,67.83
2023-01-13T15:02:48.160Z,67.91
2023-01-13T15:07:58.091Z,68.53
2023-01-13T15:13:07.394Z,68.81
2023-01-13T15:18:17.383Z,68.90
2023-01-13T15:23:25.109Z,69.68
2023-01-13T15:28:33.231Z,69.27
2023-01-13T15:33:41.925Z,69.23
2023-01-13T15:38:49.032Z,69.26
2023-01-13T15:44:14.140Z,69.42
2023-01-13T15:49:28.260Z,69.22
2023-01-13T15:54:35.855Z,69.67
2023-01-13T15:59:43.253Z,69.69
2023-01-13T16:04:54.322Z,69.96
2023-01-13T16:10:03.684Z,69.35
2023-01-13T16:15:13.925Z,69.38
2023-01-13T16:20:21.652Z,69.25
2023-01-13T16:25:29.801Z,69.15
2023-01-13T16:30:38.514Z,69.14
2023-01-13T16:36:12.888Z,69.08
2023-01-13T16:41:13.483Z,69.23
2023-01-13T16:46:26.913Z,69.22
2023-01-13T16:51:34.585Z,69.18
2023-01-13T17:02:25.345Z,68.62
2023-01-13T17:07:33.525Z,68.69
2023-01-13T17:12:40.821Z,69.16
2023-01-13T17:17:52.206Z,69.79
2023-01-13T17:22:59.346Z,70.11
2023-01-13T17:28:07.435Z,70.28
2023-01-13T17:33:15.355Z,70.21
2023-01-13T17:38:22.886Z,70.74
2023-01-13T17:43:31.108Z,70.98
2023-01-13T17:48:38.400Z,71.08
2023-01-13T17:53:45.793Z,71.26
2023-01-13T17:58:54.400Z,71.28
2023-01-13T18:04:01.837Z,71.42
2023-01-13T18:09:09.040Z,71.59
2023-01-13T18:14:16.573Z,71.75
2023-01-13T18:19:41.980Z,72.10
2023-01-13T18:25:06.760Z,72.12
2023-01-13T18:30:15.794Z,72.28
2023-01-13T18:35:23.653Z,72.30
2023-01-13T18:40:31.166Z,72.06
2023-01-13T18:45:38.868Z,72.23
2023-01-13T18:50:46.756Z,72.36
2023-01-13T18:55:54.072Z,72.34
2023-01-13T19:01:06.022Z,72.51
2023-01-13T19:06:13.551Z,72.55
2023-01-13T19:11:20.825Z,72.60
2023-01-13T19:16:28.137Z,72.58
2023-01-13T19:21:35.339Z,72.82
2023-01-13T19:26:43.356Z,73.21
2023-01-13T19:31:50.757Z,73.57
2023-01-13T19:36:59.417Z,74.33
2023-01-13T19:42:25.293Z,74.96
2023-01-13T19:47:32.642Z,76.44
2023-01-13T19:52:39.916Z,77.74
2023-01-13T19:57:47.170Z,78.93
2023-01-13T20:02:56.979Z,80.48
2023-01-13T20:08:04.389Z,81.88
2023-01-13T20:13:11.518Z,83.07
2023-01-13T20:18:19.252Z,84.48
2023-01-13T20:23:27.550Z,85.13
2023-01-13T20:28:37.634Z,86.00
2023-01-13T20:33:50.129Z,87.46
2023-01-13T20:39:00.908Z,88.52
2023-01-13T20:44:11.649Z,89.52
2023-01-13T20:49:18.938Z,90.49
2023-01-13T20:54:28.027Z,91.08
2023-01-13T20:59:35.506Z,91.36
2023-01-13T21:04:43.244Z,92.21
2023-01-13T21:09:50.919Z,93.03
2023-01-13T21:15:15.975Z,93.05
2023-01-13T21:20:23.397Z,93.15
2023-01-13T21:25:31.288Z,93.02
2023-01-13T21:30:39.892Z,93.09
2023-01-13T21:35:47.653Z,92.94
2023-01-13T21:41:05.898Z,93.13
2023-01-13T21:46:30.088Z,93.58
2023-01-13T21:51:38.838Z,93.56
2023-01-13T21:56:46.036Z,93.48
2023-01-13T22:02:24.053Z,93.63
2023-01-13T22:07:20.680Z,93.86
2023-01-13T22:12:27.095Z,94.01
2023-01-13T22:17:35.134Z,94.45
2023-01-13T22:22:42.649Z,93.85
2023-01-13T22:27:50.442Z,94.09
2023-01-13T22:32:58.172Z,93.49
2023-01-13T22:38:05.419Z,93.41
2023-01-13T22:43:12.555Z,93.35
2023-01-13T22:48:20.952Z,93.12
2023-01-13T22:53:28.357Z,92.95
2023-01-13T23:03:59.569Z,92.57
2023-01-13T23:09:07.688Z,92.88
2023-01-13T23:14:15.574Z,92.71
2023-01-13T23:19:23.413Z,92.45
2023-01-13T23:24:31.519Z,92.32
2023-01-13T23:29:39.053Z,92.49
2023-01-13T23:34:46.165Z,92.44
2023-01-13T23:39:51.993Z,92.66
2023-01-13T23:44:59.387Z,92.40
2023-01-13T23:50:07.416Z,92.42
2023-01-13T23:55:14.646Z,92.53
